createdAt,value
2023-05-23T00:00:14.479Z,14.43
2023-05-23T00:02:43.786Z,14.43
2023-05-23T00:05:11.420Z,14.42
2023-05-23T00:07:38.979Z,14.50
2023-05-23T00:10:07.182Z,14.32
2023-05-23T00:12:34.882Z,14.15
2023-05-23T00:15:03.001Z,14.10
2023-05-23T00:17:30.691Z,14.04
2023-05-23T00:19:58.305Z,13.97
2023-05-23T00:22:26.075Z,13.87
2023-05-23T00:24:53.629Z,13.66
2023-05-23T00:27:21.188Z,13.53
2023-05-23T00:29:48.670Z,13.43
2023-05-23T00:32:16.336Z,13.45
2023-05-23T00:34:45.608Z,13.37
2023-05-23T00:37:13.556Z,13.36
2023-05-23T00:39:41.229Z,13.46
2023-05-23T00:42:08.919Z,13.50
2023-05-23T00:44:36.455Z,13.38
2023-05-23T00:47:06.133Z,13.48
2023-05-23T00:49:34.128Z,13.48
2023-05-23T00:52:01.606Z,13.25
2023-05-23T00:54:31.480Z,13.10
2023-05-23T00:56:59.259Z,13.26
2023-05-23T00:59:27.556Z,13.31
2023-05-23T01:01:56.644Z,13.27
2023-05-23T01:04:28.522Z,13.24
2023-05-23T01:06:56.183Z,13.08
2023-05-23T01:09:28.346Z,12.95
2023-05-23T01:12:14.619Z,12.81
2023-05-23T01:14:43.778Z,12.84
2023-05-23T01:17:16.358Z,12.95
2023-05-23T01:19:53.270Z,13.02
2023-05-23T01:22:49.468Z,13.09
2023-05-23T01:25:36.365Z,13.20
2023-05-23T01:28:05.994Z,13.32
2023-05-23T01:30:35.484Z,13.37
2023-05-23T01:33:03.030Z,13.34
2023-05-23T01:35:31.275Z,13.35
2023-05-23T01:37:58.904Z,13.22
2023-05-23T01:40:26.598Z,13.11
2023-05-23T01:42:55.886Z,13.16
2023-05-23T01:45:23.529Z,13.10
2023-05-23T01:47:51.329Z,13.09
2023-05-23T01:50:19.263Z,13.18
2023-05-23T01:52:48.039Z,13.04
2023-05-23T01:55:18.983Z,12.96
2023-05-23T01:57:49.850Z,12.95
2023-05-23T02:00:17.990Z,12.99
2023-05-23T02:02:47.703Z,13.03
2023-05-23T02:05:16.825Z,13.05
2023-05-23T02:07:44.256Z,12.94
2023-05-23T02:10:11.814Z,12.87
2023-05-23T02:12:39.257Z,12.92
2023-05-23T02:15:07.888Z,12.88
2023-05-23T02:17:35.451Z,12.79
2023-05-23T02:20:03.070Z,12.77
2023-05-23T02:22:32.056Z,12.74
2023-05-23T02:24:59.529Z,12.71
2023-05-23T02:27:27.479Z,12.63
2023-05-23T02:29:55.247Z,12.55
2023-05-23T02:32:22.726Z,12.54
2023-05-23T02:34:50.592Z,12.60
2023-05-23T02:37:18.092Z,12.61
2023-05-23T02:39:45.710Z,12.57
2023-05-23T02:42:14.571Z,12.53
2023-05-23T02:44:42.439Z,12.49
2023-05-23T02:47:10.100Z,12.52
2023-05-23T02:49:37.836Z,12.52
2023-05-23T02:52:07.022Z,12.47
2023-05-23T02:54:34.457Z,12.50
2023-05-23T02:57:01.963Z,12.58
2023-05-23T02:59:30.934Z,12.66
2023-05-23T03:01:58.768Z,12.63
2023-05-23T03:04:27.815Z,12.60
2023-05-23T03:06:55.394Z,12.65
2023-05-23T03:09:23.137Z,12.72
2023-05-23T03:11:51.513Z,12.87
2023-05-23T03:14:19.173Z,12.88
2023-05-23T03:16:46.788Z,12.95
2023-05-23T03:19:14.862Z,12.99
2023-05-23T03:21:42.575Z,13.06
2023-05-23T03:24:10.787Z,13.05
2023-05-23T03:26:38.500Z,13.19
2023-05-23T03:29:06.818Z,13.26
2023-05-23T03:31:34.575Z,13.33
2023-05-23T03:34:02.920Z,13.40
2023-05-23T03:36:33.454Z,13.43
2023-05-23T03:39:01.182Z,13.47
2023-05-23T03:41:28.665Z,13.57
2023-05-23T03:43:56.495Z,13.60
2023-05-23T03:46:24.133Z,13.74
2023-05-23T03:48:52.184Z,13.81
2023-05-23T03:51:19.822Z,13.84
2023-05-23T03:53:47.578Z,13.95
2023-05-23T03:56:15.140Z,14.05
2023-05-23T03:58:42.697Z,14.16
2023-05-23T04:01:13.743Z,14.31
2023-05-23T04:03:41.376Z,14.54
2023-05-23T04:06:09.061Z,14.84
2023-05-23T04:08:42.225Z,15.12
2023-05-23T04:11:09.934Z,15.54
2023-05-23T04:13:39.141Z,15.94
2023-05-23T04:16:07.276Z,16.26
2023-05-23T04:18:34.842Z,16.54
2023-05-23T04:21:02.655Z,16.75
2023-05-23T04:23:31.503Z,16.90
2023-05-23T04:25:59.414Z,16.95
2023-05-23T04:28:32.688Z,16.96
2023-05-23T04:31:03.061Z,17.18
2023-05-23T04:33:34.506Z,17.32
2023-05-23T04:36:03.794Z,17.39
2023-05-23T04:38:32.407Z,17.53
2023-05-23T04:41:01.344Z,17.59
2023-05-23T04:43:54.596Z,17.71
2023-05-23T04:46:34.968Z,17.73
2023-05-23T04:49:10.257Z,17.62
2023-05-23T04:51:38.574Z,17.53
2023-05-23T04:54:22.215Z,17.28
2023-05-23T04:56:49.964Z,17.23
2023-05-23T04:59:19.845Z,17.13
2023-05-23T05:01:47.356Z,17.05
2023-05-23T05:04:15.783Z,17.02
2023-05-23T05:06:43.548Z,17.03
2023-05-23T05:09:11.218Z,16.98
2023-05-23T05:11:39.078Z,17.07
2023-05-23T05:14:07.341Z,17.14
2023-05-23T05:16:36.577Z,17.12
2023-05-23T05:19:04.363Z,17.18
2023-05-23T05:21:32.683Z,17.23
2023-05-23T05:24:00.246Z,17.26
2023-05-23T05:26:28.138Z,17.25
2023-05-23T05:28:56.587Z,17.18
2023-05-23T05:31:24.080Z,17.18
2023-05-23T05:33:51.563Z,17.29
2023-05-23T05:39:51.315Z,17.47
2023-05-23T05:42:19.312Z,17.56
2023-05-23T05:44:48.199Z,17.64
2023-05-23T05:47:16.013Z,17.74
2023-05-23T05:49:43.697Z,17.85
2023-05-23T05:52:11.313Z,17.96
2023-05-23T05:54:38.985Z,18.03
2023-05-23T05:57:06.620Z,18.07
2023-05-23T05:59:34.281Z,18.20
2023-05-23T06:02:02.210Z,18.31
2023-05-23T06:04:30.055Z,18.32
2023-05-23T06:06:58.425Z,18.38
2023-05-23T06:09:26.080Z,18.48
2023-05-23T06:11:53.745Z,18.67
2023-05-23T06:14:21.511Z,18.88
2023-05-23T06:16:49.717Z,19.03
2023-05-23T06:19:17.883Z,19.01
2023-05-23T06:21:48.492Z,19.14
2023-05-23T06:24:16.623Z,19.28
2023-05-23T06:26:44.180Z,19.32
2023-05-23T06:29:11.739Z,19.44
2023-05-23T06:31:39.550Z,19.56
2023-05-23T06:34:07.229Z,19.69
2023-05-23T06:36:34.950Z,19.84
2023-05-23T06:39:02.792Z,19.93
2023-05-23T06:41:55.130Z,19.98
2023-05-23T06:44:22.635Z,20.05
2023-05-23T06:46:57.850Z,20.14
2023-05-23T06:49:25.812Z,20.22
2023-05-23T06:51:53.811Z,20.27
2023-05-23T06:54:21.589Z,20.31
2023-05-23T06:56:50.118Z,20.30
2023-05-23T06:59:19.630Z,20.34
2023-05-23T07:01:47.490Z,20.43
2023-05-23T07:04:15.526Z,20.48
2023-05-23T07:06:43.219Z,20.55
2023-05-23T07:09:12.115Z,20.70
2023-05-23T07:11:41.766Z,20.78
2023-05-23T07:14:09.991Z,20.83
2023-05-23T07:16:41.106Z,20.80
2023-05-23T07:19:09.236Z,20.82
2023-05-23T07:30:05.303Z,21.01
2023-05-23T07:32:33.478Z,21.08
2023-05-23T07:35:01.323Z,21.04
2023-05-23T07:37:29.121Z,21.01
2023-05-23T07:39:56.678Z,21.13
2023-05-23T07:42:24.414Z,21.18
2023-05-23T07:44:52.182Z,21.23
2023-05-23T07:50:55.286Z,21.47
2023-05-23T07:53:23.791Z,21.59
2023-05-23T08:00:52.472Z,21.45
2023-05-23T08:03:43.944Z,21.31
2023-05-23T08:06:19.823Z,21.29
2023-05-23T08:08:48.160Z,21.20
2023-05-23T08:11:15.880Z,21.17
2023-05-23T08:13:46.834Z,21.34
2023-05-23T08:16:38.182Z,21.43
2023-05-23T08:19:12.639Z,21.33
2023-05-23T08:21:40.614Z,21.35
2023-05-23T08:24:08.254Z,21.35
2023-05-23T08:26:38.137Z,21.35
2023-05-23T08:29:07.518Z,21.34
2023-05-23T08:31:37.374Z,21.43
2023-05-23T08:34:07.245Z,21.48
2023-05-23T08:36:36.683Z,21.50
2023-05-23T08:39:05.015Z,21.53
2023-05-23T08:41:38.083Z,21.52
2023-05-23T08:44:10.079Z,21.61
2023-05-23T08:46:46.374Z,21.48
2023-05-23T08:49:19.615Z,21.46
2023-05-23T08:51:47.245Z,21.63
2023-05-23T08:54:19.076Z,21.83
2023-05-23T08:56:46.532Z,22.02
2023-05-23T08:59:14.067Z,22.20
2023-05-23T09:01:43.529Z,22.44
2023-05-23T09:04:12.711Z,22.51
2023-05-23T09:06:55.763Z,22.47
2023-05-23T09:09:23.677Z,22.47
2023-05-23T09:11:52.028Z,22.47
2023-05-23T09:14:20.096Z,22.51
2023-05-23T09:16:49.716Z,22.48
2023-05-23T09:19:19.822Z,22.63
2023-05-23T09:21:53.942Z,22.79
2023-05-23T09:24:37.292Z,22.81
2023-05-23T09:27:07.707Z,22.99
2023-05-23T09:29:40.063Z,23.15
2023-05-23T09:32:14.515Z,23.18
2023-05-23T09:35:04.263Z,23.25
2023-05-23T09:37:46.216Z,23.34
2023-05-23T09:40:16.755Z,23.53
2023-05-23T09:42:55.460Z,23.45
2023-05-23T09:45:30.135Z,23.39
2023-05-23T09:47:58.077Z,23.56
2023-05-23T09:50:31.042Z,23.64
2023-05-23T09:52:58.593Z,23.66
2023-05-23T09:55:28.861Z,23.59
2023-05-23T09:57:59.070Z,23.69
2023-05-23T10:00:29.113Z,23.77
2023-05-23T10:03:17.645Z,23.69
2023-05-23T10:05:48.899Z,23.73
2023-05-23T10:08:28.237Z,23.78
2023-05-23T10:10:58.632Z,23.86
2023-05-23T10:13:27.294Z,23.87
2023-05-23T10:16:36.394Z,23.94
2023-05-23T10:19:07.960Z,24.08
2023-05-23T10:21:39.484Z,23.91
2023-05-23T10:24:07.599Z,23.72
2023-05-23T10:26:35.249Z,23.58
2023-05-23T10:29:02.744Z,23.33
2023-05-23T10:31:30.499Z,23.16
2023-05-23T10:34:36.716Z,23.15
2023-05-23T10:37:04.780Z,23.43
2023-05-23T10:39:54.453Z,23.59
2023-05-23T10:42:37.498Z,23.66
2023-05-23T10:45:15.491Z,23.37
2023-05-23T10:47:43.158Z,23.25
2023-05-23T10:50:15.317Z,23.33
2023-05-23T10:52:43.278Z,23.51
2023-05-23T10:55:19.927Z,23.71
2023-05-23T10:57:48.479Z,23.80
2023-05-23T11:00:17.585Z,23.84
2023-05-23T11:02:55.832Z,23.81
2023-05-23T11:05:24.905Z,23.71
2023-05-23T11:08:14.735Z,23.61
2023-05-23T11:11:02.654Z,23.47
2023-05-23T11:14:00.873Z,23.31
2023-05-23T11:16:29.409Z,23.52
2023-05-23T11:19:19.334Z,23.56
2023-05-23T11:22:02.186Z,23.59
2023-05-23T11:24:52.700Z,23.53
2023-05-23T11:27:26.717Z,23.62
2023-05-23T11:30:02.272Z,23.67
2023-05-23T11:32:31.453Z,23.69
2023-05-23T11:35:06.459Z,23.85
2023-05-23T11:37:34.142Z,23.95
2023-05-23T11:40:27.508Z,23.86
2023-05-23T11:42:55.866Z,23.87
2023-05-23T11:45:23.992Z,24.01
2023-05-23T11:47:51.746Z,23.93
2023-05-23T11:50:20.915Z,23.84
2023-05-23T11:52:51.943Z,24.13
2023-05-23T11:55:23.378Z,24.26
2023-05-23T11:57:52.089Z,24.29
2023-05-23T12:00:20.461Z,24.41
2023-05-23T12:02:49.165Z,24.63
2023-05-23T12:05:16.990Z,24.65
2023-05-23T12:07:48.560Z,24.56
2023-05-23T12:10:17.030Z,24.42
2023-05-23T12:12:48.954Z,24.46
2023-05-23T12:15:17.117Z,24.31
2023-05-23T12:17:46.454Z,23.90
2023-05-23T12:20:14.388Z,23.83
2023-05-23T12:22:42.431Z,23.93
2023-05-23T12:25:13.033Z,23.87
2023-05-23T12:27:42.045Z,23.94
2023-05-23T12:30:11.451Z,24.06
2023-05-23T12:32:42.858Z,24.09
2023-05-23T12:35:13.307Z,24.13
2023-05-23T12:37:41.544Z,24.23
2023-05-23T12:40:16.172Z,24.32
2023-05-23T12:42:51.761Z,24.36
2023-05-23T12:45:21.051Z,24.50
2023-05-23T12:47:50.252Z,24.63
2023-05-23T12:50:19.000Z,24.82
2023-05-23T12:52:46.491Z,25.00
2023-05-23T12:55:14.391Z,25.20
2023-05-23T12:57:42.437Z,25.40
2023-05-23T13:00:10.891Z,25.54
2023-05-23T13:02:40.851Z,25.64
2023-05-23T13:05:09.519Z,25.66
2023-05-23T13:07:37.988Z,25.65
2023-05-23T13:10:06.194Z,25.61
2023-05-23T13:12:34.661Z,25.51
2023-05-23T13:15:02.293Z,25.39
2023-05-23T13:17:30.521Z,25.21
2023-05-23T13:19:58.599Z,25.19
2023-05-23T13:22:26.325Z,25.18
2023-05-23T13:24:53.847Z,25.19
2023-05-23T13:27:21.738Z,25.17
2023-05-23T13:29:49.310Z,25.17
2023-05-23T13:32:16.866Z,25.00
2023-05-23T13:34:44.475Z,24.89
2023-05-23T13:37:11.980Z,24.83
2023-05-23T13:39:39.442Z,24.82
2023-05-23T13:42:08.089Z,24.73
2023-05-23T13:44:36.189Z,24.66
2023-05-23T13:47:12.949Z,24.59
2023-05-23T13:49:42.041Z,24.53
2023-05-23T13:52:09.730Z,24.51
2023-05-23T13:54:37.481Z,24.47
2023-05-23T13:57:05.848Z,24.40
2023-05-23T13:59:33.460Z,24.43
2023-05-23T14:02:01.117Z,24.55
2023-05-23T14:04:28.809Z,24.60
2023-05-23T14:06:56.343Z,24.68
2023-05-23T14:09:23.809Z,24.74
2023-05-23T14:11:54.125Z,24.89
2023-05-23T14:14:22.218Z,25.08
2023-05-23T14:16:51.250Z,25.20
2023-05-23T14:19:19.532Z,25.19
2023-05-23T14:25:11.281Z,25.55
2023-05-23T14:27:40.251Z,25.61
2023-05-23T14:30:08.505Z,25.42
2023-05-23T14:32:39.344Z,25.41
2023-05-23T14:35:07.980Z,25.27
2023-05-23T14:37:35.704Z,25.13
2023-05-23T14:40:05.252Z,24.96
2023-05-23T14:42:33.196Z,24.80
2023-05-23T14:45:00.907Z,24.61
2023-05-23T14:47:28.581Z,24.41
2023-05-23T14:49:56.286Z,24.21
2023-05-23T14:52:24.372Z,24.03
2023-05-23T14:54:52.136Z,24.27
2023-05-23T14:57:19.807Z,24.51
2023-05-23T14:59:47.653Z,24.83
2023-05-23T15:02:15.537Z,25.07
2023-05-23T15:04:43.588Z,25.13
2023-05-23T15:07:11.260Z,25.26
2023-05-23T15:09:38.873Z,25.42
2023-05-23T15:12:09.753Z,25.55
2023-05-23T15:14:37.428Z,25.81
2023-05-23T15:17:08.300Z,26.04
2023-05-23T15:19:36.747Z,26.04
2023-05-23T15:22:06.034Z,26.05
2023-05-23T15:24:35.067Z,26.10
2023-05-23T15:27:15.691Z,26.11
2023-05-23T15:29:47.008Z,25.98
2023-05-23T15:32:14.749Z,25.93
2023-05-23T15:34:42.800Z,25.86
2023-05-23T15:37:11.092Z,25.96
2023-05-23T15:39:38.567Z,26.06
2023-05-23T15:42:06.204Z,26.01
2023-05-23T15:44:33.963Z,26.01
2023-05-23T15:47:10.436Z,26.00
2023-05-23T15:49:38.539Z,25.88
2023-05-23T15:52:06.300Z,25.90
2023-05-23T15:54:34.005Z,25.76
2023-05-23T15:57:01.497Z,25.46
2023-05-23T15:59:29.159Z,25.37
2023-05-23T16:01:57.449Z,25.25
2023-05-23T16:04:25.261Z,25.11
2023-05-23T16:06:52.698Z,25.03
2023-05-23T16:09:20.254Z,24.95
2023-05-23T16:11:47.840Z,24.82
2023-05-23T16:14:16.319Z,24.72
2023-05-23T16:16:44.224Z,24.70
2023-05-23T16:19:11.907Z,24.60
2023-05-23T16:21:39.535Z,24.56
2023-05-23T16:24:07.421Z,24.50
2023-05-23T16:26:35.067Z,24.35
2023-05-23T16:29:03.137Z,24.26
2023-05-23T16:31:30.833Z,24.22
2023-05-23T16:33:59.595Z,24.19
2023-05-23T16:36:27.890Z,24.24
2023-05-23T16:38:57.130Z,24.20
2023-05-23T16:41:24.712Z,24.16
2023-05-23T16:43:52.369Z,24.17
2023-05-23T16:46:22.261Z,24.14
2023-05-23T16:48:50.151Z,24.13
2023-05-23T16:51:19.160Z,24.16
2023-05-23T16:53:46.798Z,24.16
2023-05-23T16:56:14.757Z,24.11
2023-05-23T16:58:42.308Z,24.08
2023-05-23T17:01:09.941Z,24.00
2023-05-23T17:03:37.622Z,24.00
2023-05-23T17:06:05.749Z,23.98
2023-05-23T17:08:33.249Z,23.93
2023-05-23T17:11:00.814Z,23.91
2023-05-23T17:13:28.616Z,23.86
2023-05-23T17:15:57.163Z,23.82
2023-05-23T17:18:24.707Z,23.78
2023-05-23T17:20:52.225Z,23.70
2023-05-23T17:23:19.861Z,23.70
2023-05-23T17:25:47.514Z,23.72
2023-05-23T17:28:15.075Z,23.63
2023-05-23T17:30:42.873Z,23.53
2023-05-23T17:33:13.392Z,23.48
2023-05-23T17:35:41.183Z,23.37
2023-05-23T17:38:08.874Z,23.13
2023-05-23T17:40:36.445Z,22.95
2023-05-23T17:43:04.066Z,22.77
2023-05-23T17:45:31.709Z,22.59
2023-05-23T17:48:03.832Z,22.42
2023-05-23T17:50:32.379Z,22.32
2023-05-23T17:53:02.762Z,22.16
2023-05-23T17:55:31.851Z,22.04
2023-05-23T17:57:59.427Z,21.93
2023-05-23T18:00:27.293Z,21.86
2023-05-23T18:02:54.887Z,21.77
2023-05-23T18:05:23.762Z,21.66
2023-05-23T18:07:51.323Z,21.56
2023-05-23T18:10:18.973Z,21.47
2023-05-23T18:12:46.586Z,21.36
2023-05-23T18:15:14.162Z,21.21
2023-05-23T18:17:41.976Z,21.06
2023-05-23T18:20:10.517Z,20.92
2023-05-23T18:22:38.167Z,20.75
2023-05-23T18:25:06.888Z,20.60
2023-05-23T18:27:34.404Z,20.44
2023-05-23T18:30:02.016Z,20.27
2023-05-23T18:32:30.323Z,20.15
2023-05-23T18:34:58.016Z,20.07
2023-05-23T18:37:25.488Z,20.06
2023-05-23T18:39:58.033Z,20.02
2023-05-23T18:42:25.675Z,19.97
2023-05-23T18:44:53.194Z,19.93
2023-05-23T18:47:22.743Z,19.84
2023-05-23T18:49:51.784Z,19.81
2023-05-23T18:52:20.511Z,19.77
2023-05-23T18:54:50.577Z,19.82
2023-05-23T18:57:20.593Z,19.85
2023-05-23T18:59:48.856Z,19.78
2023-05-23T19:02:16.452Z,19.65
2023-05-23T19:04:44.008Z,19.54
2023-05-23T19:07:11.771Z,19.51
2023-05-23T19:09:39.282Z,19.39
2023-05-23T19:12:07.307Z,19.28
2023-05-23T19:14:35.037Z,19.07
2023-05-23T19:17:05.992Z,18.86
2023-05-23T19:19:35.019Z,18.76
2023-05-23T19:22:02.608Z,18.67
2023-05-23T19:24:30.312Z,18.62
2023-05-23T19:26:57.960Z,18.64
2023-05-23T19:29:26.048Z,18.63
2023-05-23T19:31:55.001Z,18.64
2023-05-23T19:34:22.683Z,18.65
2023-05-23T19:36:50.255Z,18.60
2023-05-23T19:39:17.889Z,18.57
2023-05-23T19:41:45.460Z,18.38
2023-05-23T19:44:13.454Z,18.28
2023-05-23T19:46:41.076Z,18.19
2023-05-23T19:49:09.148Z,18.08
2023-05-23T19:51:46.844Z,17.94
2023-05-23T19:54:16.846Z,17.83
2023-05-23T19:56:45.965Z,17.80
2023-05-23T19:59:14.220Z,17.83
2023-05-23T20:01:41.943Z,17.78
2023-05-23T20:04:13.000Z,17.74
2023-05-23T20:06:40.796Z,17.76
2023-05-23T20:09:08.664Z,17.76
2023-05-23T20:11:36.148Z,17.70
2023-05-23T20:14:03.675Z,17.61
2023-05-23T20:16:31.254Z,17.38
2023-05-23T20:18:58.929Z,17.09
2023-05-23T20:21:26.366Z,17.00
2023-05-23T20:23:54.922Z,16.92
2023-05-23T20:26:22.908Z,16.87
2023-05-23T20:28:50.676Z,17.00
2023-05-23T20:31:19.224Z,17.10
2023-05-23T20:33:46.834Z,17.09
2023-05-23T20:36:14.393Z,17.07
2023-05-23T20:38:42.033Z,17.00
2023-05-23T20:41:09.707Z,16.96
2023-05-23T20:43:40.128Z,16.94
2023-05-23T20:46:09.358Z,16.88
2023-05-23T20:48:37.002Z,16.83
2023-05-23T20:51:06.106Z,16.71
2023-05-23T20:53:34.344Z,16.65
2023-05-23T20:56:02.723Z,16.59
2023-05-23T20:58:30.163Z,16.54
2023-05-23T21:00:58.980Z,16.53
2023-05-23T21:03:26.911Z,16.51
2023-05-23T21:05:55.403Z,16.49
2023-05-23T21:08:23.056Z,16.43
2023-05-23T21:10:53.220Z,16.40
2023-05-23T21:13:21.985Z,16.35
2023-05-23T21:15:49.949Z,16.23
2023-05-23T21:18:17.365Z,16.21
2023-05-23T21:20:45.150Z,16.18
2023-05-23T21:23:12.757Z,16.14
2023-05-23T21:25:40.185Z,15.99
2023-05-23T21:28:07.844Z,16.02
2023-05-23T21:30:35.554Z,15.99
2023-05-23T21:33:03.425Z,15.96
2023-05-23T21:35:31.099Z,15.94
2023-05-23T21:37:58.653Z,15.91
2023-05-23T21:40:27.150Z,15.78
2023-05-23T21:42:54.732Z,15.77
2023-05-23T21:45:22.491Z,15.70
2023-05-23T21:47:50.141Z,15.58
2023-05-23T21:50:18.019Z,15.51
2023-05-23T21:52:45.677Z,15.45
2023-05-23T21:55:13.380Z,15.43
2023-05-23T21:57:41.106Z,15.46
2023-05-23T22:00:12.850Z,15.43
2023-05-23T22:02:40.852Z,15.36
2023-05-23T22:05:09.114Z,15.26
2023-05-23T22:07:36.983Z,15.11
2023-05-23T22:10:05.041Z,15.15
2023-05-23T22:12:32.603Z,15.03
2023-05-23T22:15:00.192Z,15.08
2023-05-23T22:17:27.770Z,15.06
2023-05-23T22:19:58.348Z,14.94
2023-05-23T22:22:26.114Z,14.82
2023-05-23T22:24:53.878Z,14.81
2023-05-23T22:27:21.467Z,14.74
2023-05-23T22:29:48.928Z,14.71
2023-05-23T22:32:16.550Z,14.64
2023-05-23T22:34:45.521Z,14.56
2023-05-23T22:37:13.105Z,14.52
2023-05-23T22:39:40.665Z,14.50
2023-05-23T22:42:08.354Z,14.59
2023-05-23T22:44:36.594Z,14.64
2023-05-23T22:47:04.606Z,14.74
2023-05-23T22:49:32.328Z,14.74
2023-05-23T22:51:59.891Z,14.68
2023-05-23T22:54:27.444Z,14.65
2023-05-23T22:56:55.892Z,14.62
2023-05-23T22:59:23.348Z,14.61
2023-05-23T23:01:51.308Z,14.57
2023-05-23T23:04:23.810Z,14.55
2023-05-23T23:06:53.889Z,14.48
2023-05-23T23:09:21.625Z,14.37
2023-05-23T23:11:49.093Z,14.36
2023-05-23T23:14:16.618Z,14.41
2023-05-23T23:16:46.498Z,14.44
2023-05-23T23:19:14.092Z,14.44
2023-05-23T23:21:41.535Z,14.43
2023-05-23T23:24:09.028Z,14.58
2023-05-23T23:26:36.784Z,14.57
2023-05-23T23:29:04.431Z,14.50
2023-05-23T23:31:31.929Z,14.46
2023-05-23T23:33:59.641Z,14.44
2023-05-23T23:36:27.244Z,14.25
2023-05-23T23:38:54.671Z,14.17
2023-05-23T23:41:22.998Z,14.07
2023-05-23T23:43:50.420Z,14.11
2023-05-23T23:46:19.053Z,14.13
2023-05-23T23:48:46.831Z,14.13
2023-05-23T23:51:14.486Z,14.14
2023-05-23T23:53:42.078Z,14.20
2023-05-23T23:56:09.578Z,14.20
2023-05-23T23:58:37.371Z,14.13
